地図

経路データ

SID SEASON NUMBER BASIN SUBBASIN NAME ISO_TIME NATURE LAT LON WMO_WIND WMO_PRES WMO_AGENCY TRACK_TYPE DIST2LAND LANDFALL IFLAG USA_AGENCY USA_ATCF_ID USA_LAT USA_LON USA_RECORD USA_STATUS USA_WIND USA_PRES USA_SSHS USA_R34_NE USA_R34_SE USA_R34_SW USA_R34_NW USA_R50_NE USA_R50_SE USA_R50_SW USA_R50_NW USA_R64_NE USA_R64_SE USA_R64_SW USA_R64_NW USA_POCI USA_ROCI USA_RMW USA_EYE TOKYO_LAT TOKYO_LON TOKYO_GRADE TOKYO_WIND TOKYO_PRES TOKYO_R50_DIR TOKYO_R50_LONG TOKYO_R50_SHORT TOKYO_R30_DIR TOKYO_R30_LONG TOKYO_R30_SHORT TOKYO_LAND CMA_LAT CMA_LON CMA_CAT CMA_WIND CMA_PRES HKO_LAT HKO_LON HKO_CAT HKO_WIND HKO_PRES NEWDELHI_LAT NEWDELHI_LON NEWDELHI_GRADE NEWDELHI_WIND NEWDELHI_PRES NEWDELHI_CI NEWDELHI_DP NEWDELHI_POCI REUNION_LAT REUNION_LON REUNION_TYPE REUNION_WIND REUNION_PRES REUNION_TNUM REUNION_CI REUNION_RMW REUNION_R34_NE REUNION_R34_SE REUNION_R34_SW REUNION_R34_NW REUNION_R50_NE REUNION_R50_SE REUNION_R50_SW REUNION_R50_NW REUNION_R64_NE REUNION_R64_SE REUNION_R64_SW REUNION_R64_NW BOM_LAT BOM_LON BOM_TYPE BOM_WIND BOM_PRES BOM_TNUM BOM_CI BOM_RMW BOM_R34_NE BOM_R34_SE BOM_R34_SW BOM_R34_NW BOM_R50_NE BOM_R50_SE BOM_R50_SW BOM_R50_NW BOM_R64_NE BOM_R64_SE BOM_R64_SW BOM_R64_NW BOM_ROCI BOM_POCI BOM_EYE BOM_POS_METHOD BOM_PRES_METHOD NADI_LAT NADI_LON NADI_CAT NADI_WIND NADI_PRES WELLINGTON_LAT WELLINGTON_LON WELLINGTON_WIND WELLINGTON_PRES DS824_LAT DS824_LON DS824_STAGE DS824_WIND DS824_PRES TD9636_LAT TD9636_LON TD9636_STAGE TD9636_WIND TD9636_PRES TD9635_LAT TD9635_LON TD9635_WIND TD9635_PRES TD9635_ROCI NEUMANN_LAT NEUMANN_LON NEUMANN_CLASS NEUMANN_WIND NEUMANN_PRES MLC_LAT MLC_LON MLC_CLASS MLC_WIND MLC_PRES USA_GUST BOM_GUST BOM_GUST_PER REUNION_GUST REUNION_GUST_PER USA_SEAHGT USA_SEARAD_NE USA_SEARAD_SE USA_SEARAD_SW USA_SEARAD_NW STORM_SPEED STORM_DIR
1963214N13213 1963 68 EP CP NOT_NAMED 1963-08-02 00:00:00 TS 12.5000 -147.000 25 hurdat_epa main 1143 1090 O________O____ hurdat_epa CP011963 12.5000 -147.000 TD 25 -1 12.5000 -147.000 TC 25 16 264
1963214N13213 1963 68 EP CP NOT_NAMED 1963-08-02 03:00:00 TS 12.4131 -147.825 main 1090 1040 P________P____ CP011963 12.4131 -147.825 TD 25 -1 12.4131 -147.825 TC 25 16 263
1963214N13213 1963 68 EP CP NOT_NAMED 1963-08-02 06:00:00 TS 12.3000 -148.600 25 hurdat_epa main 1040 1001 O________O____ hurdat_epa CP011963 12.3000 -148.600 TD 25 -1 12.3000 -148.600 TC 25 15 260
1963214N13213 1963 68 EP CP NOT_NAMED 1963-08-02 09:00:00 TS 12.1496 -149.300 main 1010 976 P________P____ CP011963 12.1496 -149.300 TD 25 -1 12.1496 -149.300 TC 25 14 258
1963214N13213 1963 68 EP CP NOT_NAMED 1963-08-02 12:00:00 TS 12.0000 -150.000 25 hurdat_epa main 976 942 O________O____ hurdat_epa CP011963 12.0000 -150.000 TD 25 -1 12.0000 -150.000 TC 25 15 260
1963214N13213 1963 68 EP CP NOT_NAMED 1963-08-02 15:00:00 TS 11.8850 -150.800 main 942 908 P________P____ CP011963 11.8850 -150.800 TD 25 -1 11.8850 -150.800 TC 25 16 263
1963214N13213 1963 68 EP CP NOT_NAMED 1963-08-02 18:00:00 TS 11.8000 -151.600 25 hurdat_epa main 908 883 O________O____ hurdat_epa CP011963 11.8000 -151.600 TD 25 -1 11.8000 -151.600 TC 25 15 264
1963214N13213 1963 68 EP CP NOT_NAMED 1963-08-02 21:00:00 TS 11.7345 -152.292 main 884 856 P________P____ CP011963 11.7345 -152.292 TD 25 -1 11.7345 -152.292 TC 25 14 266
1963214N13213 1963 68 EP CP NOT_NAMED 1963-08-03 00:00:00 TS 11.7000 -153.000 25 hurdat_epa main 856 831 O________O____ hurdat_epa CP011963 11.7000 -153.000 TD 25 -1 11.7000 -153.000 TC 25 15 268
1963214N13213 1963 68 EP CP NOT_NAMED 1963-08-03 03:00:00 TS 11.6924 -153.827 main 831 813 P________P____ CP011963 11.6924 -153.827 TD 25 -1 11.6924 -153.827 TC 25 17 270
1963214N13213 1963 68 EP CP NOT_NAMED 1963-08-03 06:00:00 TS 11.7000 -154.700 25 hurdat_epa main 813 806 O________O____ hurdat_epa CP011963 11.7000 -154.700 TD 25 -1 11.7000 -154.700 TC 25 17 270
1963214N13213 1963 68 EP CP NOT_NAMED 1963-08-03 09:00:00 TS 11.6999 -155.572 main 806 805 P________P____ CP011963 11.6999 -155.572 TD 25 -1 11.6999 -155.572 TC 25 17 270
1963214N13213 1963 68 EP CP NOT_NAMED 1963-08-03 12:00:00 TS 11.7000 -156.400 25 hurdat_epa main 809 809 O________O____ hurdat_epa CP011963 11.7000 -156.400 TD 25 -1 11.7000 -156.400 TC 25 15 270
1963214N13213 1963 68 EP CP NOT_NAMED 1963-08-03 15:00:00 TS 11.6997 -157.122 main 819 819 P________P____ CP011963 11.6997 -157.122 TD 25 -1 11.6997 -157.122 TC 25 14 270
1963214N13213 1963 68 EP CP NOT_NAMED 1963-08-03 18:00:00 TS 11.7000 -157.800 25 hurdat_epa main 836 836 O________O____ hurdat_epa CP011963 11.7000 -157.800 TD 25 -1 11.7000 -157.800 TC 25 14 270
1963214N13213 1963 68 EP CP NOT_NAMED 1963-08-03 21:00:00 TS 11.6924 -158.508 main 860 860 P________P____ CP011963 11.6924 -158.508 TD 25 -1 11.6924 -158.508 TC 25 14 270
1963214N13213 1963 68 EP CP NOT_NAMED 1963-08-04 00:00:00 TS 11.7000 -159.200 25 hurdat_epa main 889 889 O________O____ hurdat_epa CP011963 11.7000 -159.200 TD 25 -1 11.7000 -159.200 TC 25 13 272
1963214N13213 1963 68 EP CP NOT_NAMED 1963-08-04 03:00:00 TS 11.7424 -159.865 main 923 918 P________P____ CP011963 11.7424 -159.865 TD 25 -1 11.7424 -159.865 TC 25 13 274
1963214N13213 1963 68 EP CP NOT_NAMED 1963-08-04 06:00:00 TS 11.8000 -160.500 25 hurdat_epa main 946 946 O________O____ hurdat_epa CP011963 11.8000 -160.500 TD 25 -1 11.8000 -160.500 TC 25 12 274
1963214N13213 1963 68 EP CP NOT_NAMED 1963-08-04 09:00:00 TS 11.8273 -161.108 main 983 983 P________P____ CP011963 11.8273 -161.108 TD 25 -1 11.8273 -161.108 TC 25 12 275
1963214N13213 1963 68 EP CP NOT_NAMED 1963-08-04 12:00:00 TS 11.9000 -161.700 25 hurdat_epa main 1013 1013 O________O____ hurdat_epa CP011963 11.9000 -161.700 TD 25 -1 11.9000 -161.700 TC 25 12 283
1963214N13213 1963 68 EP CP NOT_NAMED 1963-08-04 15:00:00 TS 12.0924 -162.307 main 1038 1038 P________P____ CP011963 12.0924 -162.307 TD 25 -1 12.0924 -162.307 TC 25 12 289
1963214N13213 1963 68 EP CP NOT_NAMED 1963-08-04 18:00:00 TS 12.3000 -162.900 25 hurdat_epa main 1067 1067 O________O____ hurdat_epa CP011963 12.3000 -162.900 TD 25 -1 12.3000 -162.900 TC 25 12 285
1963214N13213 1963 68 EP CP NOT_NAMED 1963-08-04 21:00:00 TS 12.3923 -163.450 main 1106 1106 P________P____ CP011963 12.3923 -163.450 TD 25 -1 12.3923 -163.450 TC 25 11 281
1963214N13213 1963 68 EP CP NOT_NAMED 1963-08-05 00:00:00 TS 12.5000 -164.000 25 hurdat_epa main 1138 1138 O________O____ hurdat_epa CP011963 12.5000 -164.000 TD 25 -1 12.5000 -164.000 TC 25 12 286
1963214N13213 1963 68 EP CP NOT_NAMED 1963-08-05 03:00:00 TS 12.7124 -164.585 main 1158 1152 P________P____ CP011963 12.7124 -164.585 TD 25 -1 12.7124 -164.585 TC 25 13 293
1963214N13213 1963 68 EP CP NOT_NAMED 1963-08-05 06:00:00 TS 13.0000 -165.200 25 hurdat_epa main 1158 1153 O________O____ hurdat_epa CP011963 13.0000 -165.200 TD 25 -1 13.0000 -165.200 TC 25 14 297
1963214N13213 1963 68 EP CP NOT_NAMED 1963-08-05 09:00:00 TS 13.3349 -165.843 main 1162 1158 P________P____ CP011963 13.3349 -165.843 TD 25 -1 13.3349 -165.843 TC 25 14 299
1963214N13213 1963 68 EP CP NOT_NAMED 1963-08-05 12:00:00 TS 13.7000 -166.500 25 hurdat_epa main 1168 1165 O________O____ hurdat_epa CP011963 13.7000 -166.500 TD 25 -1 13.7000 -166.500 TC 25 15 299
1963214N13213 1963 68 EP CP NOT_NAMED 1963-08-05 15:00:00 TS 14.0500 -167.173 main 1188 1179 P________P____ CP011963 14.0500 -167.173 TD 25 -1 14.0500 -167.173 TC 25 14 299
1963214N13213 1963 68 EP CP NOT_NAMED 1963-08-05 18:00:00 TS 14.4000 -167.800 25 hurdat_epa main 1198 1197 O________O____ hurdat_epa CP011963 14.4000 -167.800 TD 25 -1 14.4000 -167.800 TC 25 13 301
1963214N13213 1963 68 EP CP NOT_NAMED 1963-08-05 21:00:00 TS 14.7044 -168.278 main 1212 1212 P________P____ CP011963 14.7044 -168.278 TD 35 0 14.7044 -168.278 TC 35 12 306
1963214N13213 1963 68 EP CP NOT_NAMED 1963-08-06 00:00:00 TS 15.1000 -168.800 45 hurdat_epa main 1222 1222 O________O____ hurdat_epa CP011963 15.1000 -168.800 TS 45 0 15.1000 -168.800 TC 45 16 308
1963214N13213 1963 68 EP CP NOT_NAMED 1963-08-06 03:00:00 TS 15.6828 -169.570 main 1248 1248 P________P____ CP011963 15.6828 -169.570 TS 45 0 15.6828 -169.570 TC 45 20 310
1963214N13213 1963 68 EP CP NOT_NAMED 1963-08-06 06:00:00 TS 16.4000 -170.400 45 hurdat_epa main 1276 1276 O________O____ hurdat_epa CP011963 16.4000 -170.400 TS 45 0 16.4000 -170.400 TC 45 21 315
1963214N13213 1963 68 EP CP NOT_NAMED 1963-08-06 09:00:00 TS 17.1699 -171.145 main 1299 1299 P________P____ CP011963 17.1699 -171.145 TS 45 0 17.1699 -171.145 TC 45 21 320
1963214N13213 1963 68 EP CP NOT_NAMED 1963-08-06 12:00:00 TS 18.0000 -171.800 45 hurdat_epa main 1330 1330 O________O____ hurdat_epa CP011963 18.0000 -171.800 TS 45 0 18.0000 -171.800 TC 45 20 324
1963214N13213 1963 68 EP CP NOT_NAMED 1963-08-06 15:00:00 TS 18.7824 -172.363 main 1360 1357 P________P____ CP011963 18.7450 -172.368 TS 45 0 18.8197 -172.346 TC 45 20 331
1963214N13213 1963 68 EP CP NOT_NAMED 1963-08-06 18:00:00 TS 19.7000 -172.800 45 hurdat_epa main 1374 1371 O________O____ hurdat_epa CP011963 19.7000 -172.800 TS 45 0 19.7000 -172.800 TC 45 23 341
1963214N13213 1963 68 EP CP NOT_NAMED 1963-08-06 21:00:00 TS 20.9574 -173.175 main 1390 1387 P________P____ CP011963 21.2448 -173.132 TS 45 0 20.6701 -173.304 TC 45 26 348
1963214N13213 1963 68 EP CP NOT_NAMED 1963-08-07 00:00:00 TS 22.2000 -173.375 45 hurdat_epa main 1400 1399 O________O____ hurdat_epa CP011963 22.7000 -173.300 TS 45 0 21.7000 -173.600 TC 45 21 354
1963214N13213 1963 68 EP CP NOT_NAMED 1963-08-07 03:00:00 TS 23.0371 -173.405 main 1400 1385 P________P____ CP011963 23.3245 -173.362 TS 45 0 22.7497 -173.536 TC 45 16 6
1963214N13213 1963 68 EP CP NOT_NAMED 1963-08-07 06:00:00 TS 23.8000 -173.200 45 hurdat_epa main 1386 1359 O________O____ hurdat_epa CP011963 23.8000 -173.200 TS 45 0 23.8000 -173.200 TC 45 19 18
1963214N13213 1963 68 EP CP NOT_NAMED 1963-08-07 09:00:00 TS 24.7924 -172.792 main 1361 1325 P________P____ CP011963 24.7550 -172.798 TS 45 0 24.8298 -172.775 TC 45 22 24
1963214N13213 1963 68 EP CP NOT_NAMED 1963-08-07 12:00:00 TS 25.8000 -172.200 45 hurdat_epa main 1328 1290 O________O____ hurdat_epa CP011963 25.8000 -172.200 TS 45 0 25.8000 -172.200 TC 45 22 32
1963214N13213 1963 68 EP CP NOT_NAMED 1963-08-07 15:00:00 TS 26.6653 -171.507 main 1294 1267 P________P____ CP011963 26.6653 -171.507 TS 45 0 26.6653 -171.507 TC 45 21 36
1963214N13213 1963 68 EP CP NOT_NAMED 1963-08-07 18:00:00 TS 27.5000 -170.800 45 hurdat_epa main 1267 1260 O________O____ hurdat_epa CP011963 27.5000 -170.800 TS 45 0 27.5000 -170.800 TC 45 21 33
1963214N13213 1963 68 EP CP NOT_NAMED 1963-08-07 21:00:00 TS 28.4144 -170.234 main 1265 1265 P________P____ CP011963 28.4144 -170.234 TS 45 0 28.4144 -170.234 TC 45 21 28
1963214N13213 1963 68 EP CP NOT_NAMED 1963-08-08 00:00:00 TS 29.3000 -169.700 45 hurdat_epa main 1282 1280 O________O____ hurdat_epa CP011963 29.3000 -169.700 TS 45 0 29.3000 -169.700 TC 45 19 31
1963214N13213 1963 68 EP CP NOT_NAMED 1963-08-08 03:00:00 TS 30.0576 -169.084 main 1294 1287 P________P____ CP011963 30.0576 -169.084 TS 45 0 30.0576 -169.084 TC 45 18 35
1963214N13213 1963 68 EP CP NOT_NAMED 1963-08-08 06:00:00 TS 30.8000 -168.500 45 hurdat_epa main 1306 1306 O________O____ hurdat_epa CP011963 30.8000 -168.500 TS 45 0 30.8000 -168.500 TC 45 18 30
1963214N13213 1963 68 EP CP NOT_NAMED 1963-08-08 09:00:00 TS 31.6225 -168.019 main 1341 1341 P________P____ CP011963 31.6225 -168.019 TS 45 0 31.6225 -168.019 TC 45 19 24
1963214N13213 1963 68 EP CP NOT_NAMED 1963-08-08 12:00:00 TS 32.5000 -167.600 45 hurdat_epa main 1397 O________O____ hurdat_epa CP011963 32.5000 -167.600 TS 45 0 32.5000 -167.600 TC 45 19 22

IBTrACS Databaseについて

本データベースは、米国NOAAが公開する1842年以降の世界の熱帯低気圧のベストトラックデータアーカイブInternational Best Track Archive for Climate Stewardship (IBTrACS)を、ウェブで閲覧しやすい形式に変換したものです。

最終更新日:2021-10-27